sensor_id;sensor_type;location;lat;lon;timestamp;pressure;altitude;pressure_sealevel;temperature;humidity
24306;BME280;12423;48.768;8.850;2023-02-23T00:00:52;96624.91;;;7.53;100.00
24306;BME280;12423;48.768;8.850;2023-02-23T00:02:55;96619.00;;;7.50;100.00
24306;BME280;12423;48.768;8.850;2023-02-23T00:04:58;96626.88;;;7.51;100.00
24306;BME280;12423;48.768;8.850;2023-02-23T00:06:59;96628.56;;;7.52;100.00
24306;BME280;12423;48.768;8.850;2023-02-23T00:09:00;96623.75;;;7.46;100.00
24306;BME280;12423;48.768;8.850;2023-02-23T00:11:03;96630.72;;;7.47;100.00
24306;BME280;12423;48.768;8.850;2023-02-23T00:13:05;96624.81;;;7.44;100.00
24306;BME280;12423;48.768;8.850;2023-02-23T00:15:07;96616.25;;;7.40;100.00
24306;BME280;12423;48.768;8.850;2023-02-23T00:17:08;96615.28;;;7.41;100.00
24306;BME280;12423;48.768;8.850;2023-02-23T00:19:13;96622.78;;;7.36;100.00
24306;BME280;12423;48.768;8.850;2023-02-23T00:21:20;96623.75;;;7.35;100.00
24306;BME280;12423;48.768;8.850;2023-02-23T00:23:22;96626.63;;;7.43;100.00
24306;BME280;12423;48.768;8.850;2023-02-23T00:25:24;96623.03;;;7.44;100.00
24306;BME280;12423;48.768;8.850;2023-02-23T00:27:25;96609.72;;;7.44;100.00
24306;BME280;12423;48.768;8.850;2023-02-23T00:29:26;96613.69;;;7.50;100.00
24306;BME280;12423;48.768;8.850;2023-02-23T00:31:28;96610.81;;;7.42;100.00
24306;BME280;12423;48.768;8.850;2023-02-23T00:33:30;96612.03;;;7.37;100.00
24306;BME280;12423;48.768;8.850;2023-02-23T00:35:32;96612.16;;;7.36;100.00
24306;BME280;12423;48.768;8.850;2023-02-23T00:37:33;96614.31;;;7.31;100.00
24306;BME280;12423;48.768;8.850;2023-02-23T00:39:34;96616.13;;;7.30;100.00
24306;BME280;12423;48.768;8.850;2023-02-23T00:41:35;96618.06;;;7.28;100.00
24306;BME280;12423;48.768;8.850;2023-02-23T00:43:38;96616.25;;;7.29;100.00
24306;BME280;12423;48.768;8.850;2023-02-23T00:45:39;96612.03;;;7.37;100.00
24306;BME280;12423;48.768;8.850;2023-02-23T00:47:43;96607.19;;;7.43;100.00
24306;BME280;12423;48.768;8.850;2023-02-23T00:49:47;96614.31;;;7.42;100.00
24306;BME280;12423;48.768;8.850;2023-02-23T00:51:48;96613.59;;;7.40;100.00
24306;BME280;12423;48.768;8.850;2023-02-23T00:53:52;96608.28;;;7.40;100.00
24306;BME280;12423;48.768;8.850;2023-02-23T00:55:54;96611.06;;;7.38;100.00
24306;BME280;12423;48.768;8.850;2023-02-23T00:57:56;96608.75;;;7.45;100.00
24306;BME280;12423;48.768;8.850;2023-02-23T00:59:58;96606.34;;;7.42;100.00
24306;BME280;12423;48.768;8.850;2023-02-23T01:02:00;96607.31;;;7.41;100.00
24306;BME280;12423;48.768;8.850;2023-02-23T01:04:01;96611.75;;;7.41;100.00
24306;BME280;12423;48.768;8.850;2023-02-23T01:06:06;96605.63;;;7.40;100.00
24306;BME280;12423;48.768;8.850;2023-02-23T01:08:07;96602.59;;;7.33;100.00
24306;BME280;12423;48.768;8.850;2023-02-23T01:10:10;96606.34;;;7.42;100.00
24306;BME280;12423;48.768;8.850;2023-02-23T01:12:19;96604.66;;;7.41;100.00
24306;BME280;12423;48.768;8.850;2023-02-23T01:14:20;96607.44;;;7.40;100.00
24306;BME280;12423;48.768;8.850;2023-02-23T01:16:24;96609.97;;;7.41;100.00
24306;BME280;12423;48.768;8.850;2023-02-23T01:18:28;96611.88;;;7.39;100.00
24306;BME280;12423;48.768;8.850;2023-02-23T01:20:29;96604.31;;;7.34;100.00
24306;BME280;12423;48.768;8.850;2023-02-23T01:22:30;96601.19;;;7.29;100.00
24306;BME280;12423;48.768;8.850;2023-02-23T01:24:31;96605.25;;;7.33;100.00
24306;BME280;12423;48.768;8.850;2023-02-23T01:26:35;96608.16;;;7.30;100.00
24306;BME280;12423;48.768;8.850;2023-02-23T01:28:37;96610.81;;;7.30;100.00
24306;BME280;12423;48.768;8.850;2023-02-23T01:30:38;96606.09;;;7.34;100.00
24306;BME280;12423;48.768;8.850;2023-02-23T01:32:41;96607.56;;;7.27;100.00
24306;BME280;12423;48.768;8.850;2023-02-23T01:34:42;96598.88;;;7.25;100.00
24306;BME280;12423;48.768;8.850;2023-02-23T01:36:44;96602.50;;;7.35;100.00
24306;BME280;12423;48.768;8.850;2023-02-23T01:38:45;96598.38;;;7.31;100.00
24306;BME280;12423;48.768;8.850;2023-02-23T01:40:46;96595.72;;;7.31;100.00
24306;BME280;12423;48.768;8.850;2023-02-23T01:42:47;96597.16;;;7.35;100.00
24306;BME280;12423;48.768;8.850;2023-02-23T01:46:50;96594.28;;;7.38;100.00
24306;BME280;12423;48.768;8.850;2023-02-23T01:48:53;96594.03;;;7.41;100.00
24306;BME280;12423;48.768;8.850;2023-02-23T01:51:02;96597.16;;;7.35;100.00
24306;BME280;12423;48.768;8.850;2023-02-23T01:53:05;96592.22;;;7.30;100.00
24306;BME280;12423;48.768;8.850;2023-02-23T01:55:08;96590.19;;;7.23;100.00
24306;BME280;12423;48.768;8.850;2023-02-23T01:57:13;96593.69;;;7.34;100.00
24306;BME280;12423;48.768;8.850;2023-02-23T01:59:15;96596.47;;;7.33;100.00
24306;BME280;12423;48.768;8.850;2023-02-23T02:01:17;96586.06;;;7.30;100.00
24306;BME280;12423;48.768;8.850;2023-02-23T02:03:25;96592.34;;;7.29;100.00
24306;BME280;12423;48.768;8.850;2023-02-23T02:05:28;96591.97;;;7.33;100.00
24306;BME280;12423;48.768;8.850;2023-02-23T02:07:30;96588.50;;;7.33;100.00
24306;BME280;12423;48.768;8.850;2023-02-23T02:09:34;96589.69;;;7.40;100.00
24306;BME280;12423;48.768;8.850;2023-02-23T02:11:38;96594.16;;;7.40;100.00
24306;BME280;12423;48.768;8.850;2023-02-23T02:13:44;96593.28;;;7.39;100.00
24306;BME280;12423;48.768;8.850;2023-02-23T02:16:00;96595.22;;;7.37;100.00
24306;BME280;12423;48.768;8.850;2023-02-23T02:18:10;96585.59;;;7.36;100.00
24306;BME280;12423;48.768;8.850;2023-02-23T02:25:47;96589.69;;;7.40;100.00
24306;BME280;12423;48.768;8.850;2023-02-23T02:28:17;96587.00;;;7.40;100.00
24306;BME280;12423;48.768;8.850;2023-02-23T02:30:33;96570.13;;;7.41;100.00
24306;BME280;12423;48.768;8.850;2023-02-23T02:33:00;96580.88;;;7.40;100.00
24306;BME280;12423;48.768;8.850;2023-02-23T02:40:10;96575.19;;;7.33;100.00
24306;BME280;12423;48.768;8.850;2023-02-23T02:42:55;96574.22;;;7.34;100.00
24306;BME280;12423;48.768;8.850;2023-02-23T02:47:45;96574.69;;;7.39;100.00
24306;BME280;12423;48.768;8.850;2023-02-23T02:49:59;96570.25;;;7.40;100.00
24306;BME280;12423;48.768;8.850;2023-02-23T02:52:18;96571.19;;;7.38;100.00
24306;BME280;12423;48.768;8.850;2023-02-23T02:54:38;96567.22;;;7.33;100.00
24306;BME280;12423;48.768;8.850;2023-02-23T02:56:42;96564.06;;;7.39;100.00
24306;BME280;12423;48.768;8.850;2023-02-23T02:58:45;96566.72;;;7.39;100.00
24306;BME280;12423;48.768;8.850;2023-02-23T03:00:47;96567.47;;;7.41;100.00
24306;BME280;12423;48.768;8.850;2023-02-23T03:03:36;96571.06;;;7.40;100.00
24306;BME280;12423;48.768;8.850;2023-02-23T03:05:57;96568.28;;;7.42;100.00
24306;BME280;12423;48.768;8.850;2023-02-23T03:11:03;96571.31;;;7.37;100.00
24306;BME280;12423;48.768;8.850;2023-02-23T03:13:41;96569.38;;;7.39;100.00
24306;BME280;12423;48.768;8.850;2023-02-23T03:16:19;96571.06;;;7.40;100.00
24306;BME280;12423;48.768;8.850;2023-02-23T03:19:10;96571.44;;;7.35;100.00
24306;BME280;12423;48.768;8.850;2023-02-23T03:21:36;96574.84;;;7.37;100.00
24306;BME280;12423;48.768;8.850;2023-02-23T03:24:03;96569.25;;;7.41;100.00
24306;BME280;12423;48.768;8.850;2023-02-23T03:26:36;96573.59;;;7.53;100.00
24306;BME280;12423;48.768;8.850;2023-02-23T03:29:12;96580.44;;;7.55;100.00
24306;BME280;12423;48.768;8.850;2023-02-23T03:34:14;96568.75;;;7.47;100.00
24306;BME280;12423;48.768;8.850;2023-02-23T03:36:42;96572.75;;;7.52;100.00
24306;BME280;12423;48.768;8.850;2023-02-23T03:41:35;96581.56;;;7.53;100.00
24306;BME280;12423;48.768;8.850;2023-02-23T03:43:58;96580.97;;;7.49;100.00
24306;BME280;12423;48.768;8.850;2023-02-23T03:46:20;96577.31;;;7.50;100.00
24306;BME280;12423;48.768;8.850;2023-02-23T03:48:43;96576.16;;;7.43;100.00
24306;BME280;12423;48.768;8.850;2023-02-23T03:51:06;96581.09;;;7.36;100.00
24306;BME280;12423;48.768;8.850;2023-02-23T03:53:32;96578.91;;;7.42;100.00
24306;BME280;12423;48.768;8.850;2023-02-23T03:55:56;96566.00;;;7.37;100.00
24306;BME280;12423;48.768;8.850;2023-02-23T03:58:21;96575.53;;;7.51;100.00
24306;BME280;12423;48.768;8.850;2023-02-23T04:00:46;96579.50;;;7.56;100.00
24306;BME280;12423;48.768;8.850;2023-02-23T04:03:08;96574.41;;;7.53;100.00
24306;BME280;12423;48.768;8.850;2023-02-23T04:05:29;96578.78;;;7.54;100.00
24306;BME280;12423;48.768;8.850;2023-02-23T04:07:51;96578.66;;;7.56;100.00
24306;BME280;12423;48.768;8.850;2023-02-23T04:10:12;96584.59;;;7.48;100.00
24306;BME280;12423;48.768;8.850;2023-02-23T04:12:55;96577.56;;;7.47;100.00
24306;BME280;12423;48.768;8.850;2023-02-23T04:15:31;96581.22;;;7.35;100.00
24306;BME280;12423;48.768;8.850;2023-02-23T04:17:34;96582.94;;;7.36;100.00
24306;BME280;12423;48.768;8.850;2023-02-23T04:19:35;96581.09;;;7.36;100.00
24306;BME280;12423;48.768;8.850;2023-02-23T04:21:36;96583.66;;;7.38;100.00
24306;BME280;12423;48.768;8.850;2023-02-23T04:23:38;96580.50;;;7.44;100.00
24306;BME280;12423;48.768;8.850;2023-02-23T04:25:41;96579.50;;;7.45;100.00
24306;BME280;12423;48.768;8.850;2023-02-23T04:27:42;96587.59;;;7.44;100.00
24306;BME280;12423;48.768;8.850;2023-02-23T04:29:43;96582.66;;;7.39;100.00
24306;BME280;12423;48.768;8.850;2023-02-23T04:31:44;96582.66;;;7.39;100.00
24306;BME280;12423;48.768;8.850;2023-02-23T04:33:45;96582.41;;;7.42;100.00
24306;BME280;12423;48.768;8.850;2023-02-23T04:35:47;96585.81;;;7.44;100.00
24306;BME280;12423;48.768;8.850;2023-02-23T04:37:47;96589.44;;;7.43;100.00
24306;BME280;12423;48.768;8.850;2023-02-23T04:39:48;96581.47;;;7.43;100.00
24306;BME280;12423;48.768;8.850;2023-02-23T04:41:50;96595.00;;;7.40;100.00
24306;BME280;12423;48.768;8.850;2023-02-23T04:43:51;96594.28;;;7.38;100.00
24306;BME280;12423;48.768;8.850;2023-02-23T04:45:51;96591.63;;;7.27;100.00
24306;BME280;12423;48.768;8.850;2023-02-23T04:47:53;96590.78;;;7.26;100.00
24306;BME280;12423;48.768;8.850;2023-02-23T04:49:54;96589.34;;;7.22;100.00
24306;BME280;12423;48.768;8.850;2023-02-23T04:51:55;96590.66;;;7.28;100.00
24306;BME280;12423;48.768;8.850;2023-02-23T04:53:56;96592.47;;;7.27;100.00
24306;BME280;12423;48.768;8.850;2023-02-23T04:55:57;96599.59;;;7.27;100.00
24306;BME280;12423;48.768;8.850;2023-02-23T04:57:59;96590.56;;;7.29;100.00
24306;BME280;12423;48.768;8.850;2023-02-23T05:00:00;96591.25;;;7.31;100.00
24306;BME280;12423;48.768;8.850;2023-02-23T05:02:04;96594.28;;;7.27;100.00
24306;BME280;12423;48.768;8.850;2023-02-23T05:04:05;96597.19;;;7.24;100.00
24306;BME280;12423;48.768;8.850;2023-02-23T05:06:06;96588.84;;;7.28;100.00
24306;BME280;12423;48.768;8.850;2023-02-23T05:08:08;96596.09;;;7.26;100.00
24306;BME280;12423;48.768;8.850;2023-02-23T05:10:09;96594.28;;;7.27;100.00
24306;BME280;12423;48.768;8.850;2023-02-23T05:12:10;96594.75;;;7.32;100.00
24306;BME280;12423;48.768;8.850;2023-02-23T05:14:11;96588.84;;;7.28;100.00
24306;BME280;12423;48.768;8.850;2023-02-23T05:16:12;96594.41;;;7.25;100.00
24306;BME280;12423;48.768;8.850;2023-02-23T05:18:13;96594.16;;;7.28;100.00
24306;BME280;12423;48.768;8.850;2023-02-23T05:20:14;96590.19;;;7.23;100.00
24306;BME280;12423;48.768;8.850;2023-02-23T05:22:16;96585.13;;;7.19;100.00
24306;BME280;12423;48.768;8.850;2023-02-23T05:24:17;96585.84;;;7.22;100.00
24306;BME280;12423;48.768;8.850;2023-02-23T05:26:18;96582.69;;;7.28;100.00
24306;BME280;12423;48.768;8.850;2023-02-23T05:28:19;96586.06;;;7.30;100.00
24306;BME280;12423;48.768;8.850;2023-02-23T05:30:21;96587.25;;;7.26;100.00
24306;BME280;12423;48.768;8.850;2023-02-23T05:32:22;96594.03;;;7.18;100.00
24306;BME280;12423;48.768;8.850;2023-02-23T05:34:23;96592.63;;;7.14;100.00
24306;BME280;12423;48.768;8.850;2023-02-23T05:36:23;96588.50;;;7.22;100.00
24306;BME280;12423;48.768;8.850;2023-02-23T05:38:25;96590.78;;;7.26;100.00
24306;BME280;12423;48.768;8.850;2023-02-23T05:40:26;96595.25;;;7.26;100.00
24306;BME280;12423;48.768;8.850;2023-02-23T05:42:27;96591.03;;;7.23;100.00
24306;BME280;12423;48.768;8.850;2023-02-23T05:44:28;96597.19;;;7.24;100.00
24306;BME280;12423;48.768;8.850;2023-02-23T05:46:29;96601.41;;;7.26;100.00
24306;BME280;12423;48.768;8.850;2023-02-23T05:48:30;96597.78;;;7.27;100.00
24306;BME280;12423;48.768;8.850;2023-02-23T05:50:32;96597.19;;;7.24;100.00
24306;BME280;12423;48.768;8.850;2023-02-23T05:52:40;96590.91;;;7.13;100.00
24306;BME280;12423;48.768;8.850;2023-02-23T05:54:41;96597.41;;;7.20;100.00
24306;BME280;12423;48.768;8.850;2023-02-23T05:56:42;96595.75;;;7.19;100.00
24306;BME280;12423;48.768;8.850;2023-02-23T05:58:43;96594.75;;;7.20;100.00
24306;BME280;12423;48.768;8.850;2023-02-23T06:00:44;96594.75;;;7.20;100.00
24306;BME280;12423;48.768;8.850;2023-02-23T06:02:45;96599.13;;;7.22;100.00
24306;BME280;12423;48.768;8.850;2023-02-23T06:04:46;96590.44;;;7.19;100.00
24306;BME280;12423;48.768;8.850;2023-02-23T06:06:47;96598.41;;;7.19;100.00
24306;BME280;12423;48.768;8.850;2023-02-23T06:08:48;96590.44;;;7.19;100.00
24306;BME280;12423;48.768;8.850;2023-02-23T06:10:49;96600.06;;;7.20;100.00
24306;BME280;12423;48.768;8.850;2023-02-23T06:12:50;96597.19;;;7.24;100.00
24306;BME280;12423;48.768;8.850;2023-02-23T06:14:51;96601.78;;;7.22;100.00
24306;BME280;12423;48.768;8.850;2023-02-23T06:16:52;96604.91;;;7.15;100.00
24306;BME280;12423;48.768;8.850;2023-02-23T06:18:53;96604.31;;;7.23;100.00
24306;BME280;12423;48.768;8.850;2023-02-23T06:20:57;96596.34;;;7.23;100.00
24306;BME280;12423;48.768;8.850;2023-02-23T06:22:59;96603.25;;;7.14;100.00
24306;BME280;12423;48.768;8.850;2023-02-23T06:25:00;96607.44;;;7.17;100.00
24306;BME280;12423;48.768;8.850;2023-02-23T06:27:04;96605.75;;;7.16;100.00
24306;BME280;12423;48.768;8.850;2023-02-23T06:29:05;96608.28;;;7.17;100.00
24306;BME280;12423;48.768;8.850;2023-02-23T06:31:06;96602.50;;;7.24;100.00
24306;BME280;12423;48.768;8.850;2023-02-23T06:33:07;96610.47;;;7.24;100.00
24306;BME280;12423;48.768;8.850;2023-02-23T06:35:08;96609.63;;;7.23;100.00
24306;BME280;12423;48.768;8.850;2023-02-23T06:37:09;96610.00;;;7.18;100.00
24306;BME280;12423;48.768;8.850;2023-02-23T06:39:11;96613.13;;;7.24;100.00
24306;BME280;12423;48.768;8.850;2023-02-23T06:41:12;96613.47;;;7.19;100.00
24306;BME280;12423;48.768;8.850;2023-02-23T06:43:13;96619.66;;;7.19;100.00
24306;BME280;12423;48.768;8.850;2023-02-23T06:45:14;96617.97;;;7.18;100.00
24306;BME280;12423;48.768;8.850;2023-02-23T06:47:15;96625.56;;;7.23;100.00
24306;BME280;12423;48.768;8.850;2023-02-23T06:49:17;96622.19;;;7.21;100.00
24306;BME280;12423;48.768;8.850;2023-02-23T06:51:18;96623.38;;;7.17;100.00
24306;BME280;12423;48.768;8.850;2023-02-23T06:53:19;96625.94;;;7.18;100.00
24306;BME280;12423;48.768;8.850;2023-02-23T06:55:20;96627.88;;;7.16;100.00
24306;BME280;12423;48.768;8.850;2023-02-23T06:57:20;96628.94;;;7.14;100.00
24306;BME280;12423;48.768;8.850;2023-02-23T06:59:21;96633.91;;;7.18;100.00
24306;BME280;12423;48.768;8.850;2023-02-23T07:01:23;96639.69;;;7.24;100.00
24306;BME280;12423;48.768;8.850;2023-02-23T07:03:25;96639.91;;;7.20;100.00
24306;BME280;12423;48.768;8.850;2023-02-23T07:05:26;96642.59;;;7.20;100.00
24306;BME280;12423;48.768;8.850;2023-02-23T07:07:27;96651.78;;;7.16;100.00
24306;BME280;12423;48.768;8.850;2023-02-23T07:09:28;96646.94;;;7.22;100.00
24306;BME280;12423;48.768;8.850;2023-02-23T07:11:29;96650.06;;;7.27;100.00
24306;BME280;12423;48.768;8.850;2023-02-23T07:13:29;96662.88;;;7.22;100.00
24306;BME280;12423;48.768;8.850;2023-02-23T07:15:31;96653.69;;;7.26;100.00
24306;BME280;12423;48.768;8.850;2023-02-23T07:17:32;96654.56;;;7.26;100.00
24306;BME280;12423;48.768;8.850;2023-02-23T07:19:33;96661.91;;;7.34;100.00
24306;BME280;12423;48.768;8.850;2023-02-23T07:21:34;96668.09;;;7.34;100.00
24306;BME280;12423;48.768;8.850;2023-02-23T07:23:35;96661.41;;;7.40;100.00
24306;BME280;12423;48.768;8.850;2023-02-23T07:25:36;96662.00;;;7.44;100.00
24306;BME280;12423;48.768;8.850;2023-02-23T07:27:38;96660.94;;;7.46;100.00
24306;BME280;12423;48.768;8.850;2023-02-23T07:29:41;96665.91;;;7.51;100.00
24306;BME280;12423;48.768;8.850;2023-02-23T07:31:42;96667.22;;;7.56;100.00
24306;BME280;12423;48.768;8.850;2023-02-23T07:33:43;96668.66;;;7.61;100.00
24306;BME280;12423;48.768;8.850;2023-02-23T07:35:44;96670.22;;;7.63;100.00
24306;BME280;12423;48.768;8.850;2023-02-23T07:37:45;96663.34;;;7.61;100.00
24306;BME280;12423;48.768;8.850;2023-02-23T07:39:46;96671.56;;;7.69;100.00
24306;BME280;12423;48.768;8.850;2023-02-23T07:41:47;96663.34;;;7.61;100.00
24306;BME280;12423;48.768;8.850;2023-02-23T07:43:52;96668.03;;;7.68;100.00
24306;BME280;12423;48.768;8.850;2023-02-23T07:45:53;96676.59;;;7.72;100.00
24306;BME280;12423;48.768;8.850;2023-02-23T07:47:54;96673.81;;;7.73;100.00
24306;BME280;12423;48.768;8.850;2023-02-23T07:49:57;96671.78;;;7.77;100.00
24306;BME280;12423;48.768;8.850;2023-02-23T07:51:58;96670.56;;;7.81;100.00
24306;BME280;12423;48.768;8.850;2023-02-23T07:54:01;96666.69;;;7.85;100.00
24306;BME280;12423;48.768;8.850;2023-02-23T07:56:04;96664.50;;;7.90;100.00
24306;BME280;12423;48.768;8.850;2023-02-23T07:58:06;96667.03;;;7.92;100.00
24306;BME280;12423;48.768;8.850;2023-02-23T08:00:08;96667.09;;;8.02;100.00
24306;BME280;12423;48.768;8.850;2023-02-23T08:02:15;96668.06;;;8.12;100.00
24306;BME280;12423;48.768;8.850;2023-02-23T08:04:16;96672.88;;;8.18;100.00
24306;BME280;12423;48.768;8.850;2023-02-23T08:06:18;96670.06;;;8.20;100.00
24306;BME280;12423;48.768;8.850;2023-02-23T08:08:19;96672.63;;;8.21;100.00
24306;BME280;12423;48.768;8.850;2023-02-23T08:10:21;96677.09;;;8.21;100.00
24306;BME280;12423;48.768;8.850;2023-02-23T08:12:21;96675.72;;;8.26;100.00
24306;BME280;12423;48.768;8.850;2023-02-23T08:14:22;96677.19;;;8.30;100.00
24306;BME280;12423;48.768;8.850;2023-02-23T08:16:32;96671.38;;;8.37;100.00
24306;BME280;12423;48.768;8.850;2023-02-23T08:18:34;96670.47;;;8.47;100.00
24306;BME280;12423;48.768;8.850;2023-02-23T08:20:34;96672.97;;;8.60;100.00
24306;BME280;12423;48.768;8.850;2023-02-23T08:22:36;96673.81;;;8.61;100.00
24306;BME280;12423;48.768;8.850;2023-02-23T08:24:36;96676.03;;;8.77;100.00
24306;BME280;12423;48.768;8.850;2023-02-23T08:26:37;96669.00;;;8.76;100.00
24306;BME280;12423;48.768;8.850;2023-02-23T08:28:38;96676.03;;;8.77;100.00
24306;BME280;12423;48.768;8.850;2023-02-23T08:30:41;96675.56;;;8.72;100.00
24306;BME280;12423;48.768;8.850;2023-02-23T08:32:42;96678.13;;;8.73;100.00
24306;BME280;12423;48.768;8.850;2023-02-23T08:34:43;96669.53;;;8.70;100.00
24306;BME280;12423;48.768;8.850;2023-02-23T08:36:44;96671.09;;;8.72;100.00
24306;BME280;12423;48.768;8.850;2023-02-23T08:38:45;96680.41;;;8.78;100.00
24306;BME280;12423;48.768;8.850;2023-02-23T08:40:47;96673.13;;;8.80;100.00
24306;BME280;12423;48.768;8.850;2023-02-23T08:42:48;96679.84;;;8.84;100.00
24306;BME280;12423;48.768;8.850;2023-02-23T08:44:49;96673.69;;;8.83;100.00
24306;BME280;12423;48.768;8.850;2023-02-23T08:46:49;96670.66;;;8.88;100.00
24306;BME280;12423;48.768;8.850;2023-02-23T08:48:50;96677.38;;;8.92;100.00
24306;BME280;12423;48.768;8.850;2023-02-23T08:50:55;96683.44;;;8.94;100.00
24306;BME280;12423;48.768;8.850;2023-02-23T08:52:56;96673.50;;;8.96;100.00
24306;BME280;12423;48.768;8.850;2023-02-23T08:54:57;96687.25;;;9.01;100.00
24306;BME280;12423;48.768;8.850;2023-02-23T08:56:58;96673.56;;;9.06;100.00
24306;BME280;12423;48.768;8.850;2023-02-23T08:58:59;96675.28;;;9.17;100.00
24306;BME280;12423;48.768;8.850;2023-02-23T09:01:00;96679.78;;;9.16;100.00
24306;BME280;12423;48.768;8.850;2023-02-23T09:03:03;96679.34;;;9.11;100.00
24306;BME280;12423;48.768;8.850;2023-02-23T09:05:05;96678.25;;;9.23;100.00
24306;BME280;12423;48.768;8.850;2023-02-23T09:07:08;96677.16;;;9.26;100.00
24306;BME280;12423;48.768;8.850;2023-02-23T09:09:09;96681.41;;;9.38;100.00
24306;BME280;12423;48.768;8.850;2023-02-23T09:11:10;96678.22;;;9.45;100.00
24306;BME280;12423;48.768;8.850;2023-02-23T09:13:12;96678.53;;;9.51;100.00
24306;BME280;12423;48.768;8.850;2023-02-23T09:15:13;96681.41;;;9.69;100.00
24306;BME280;12423;48.768;8.850;2023-02-23T09:17:14;96677.19;;;9.76;100.00
24306;BME280;12423;48.768;8.850;2023-02-23T09:19:15;96676.41;;;9.86;100.00
24306;BME280;12423;48.768;8.850;2023-02-23T09:21:18;96682.31;;;9.99;100.00
24306;BME280;12423;48.768;8.850;2023-02-23T09:23:22;96682.59;;;9.96;100.00
24306;BME280;12423;48.768;8.850;2023-02-23T09:25:23;96678.13;;;9.96;100.00
24306;BME280;12423;48.768;8.850;2023-02-23T09:27:25;96676.19;;;10.08;100.00
24306;BME280;12423;48.768;8.850;2023-02-23T09:29:26;96680.53;;;10.29;100.00
24306;BME280;12423;48.768;8.850;2023-02-23T09:31:27;96678.75;;;10.39;100.00
24306;BME280;12423;48.768;8.850;2023-02-23T09:33:28;96671.19;;;10.44;100.00
24306;BME280;12423;48.768;8.850;2023-02-23T09:35:29;96675.66;;;10.54;100.00
24306;BME280;12423;48.768;8.850;2023-02-23T09:37:30;96676.78;;;10.61;100.00
24306;BME280;12423;48.768;8.850;2023-02-23T09:39:31;96679.72;;;10.77;100.00
24306;BME280;12423;48.768;8.850;2023-02-23T09:45:59;96673.06;;;11.11;100.00
24306;BME280;12423;48.768;8.850;2023-02-23T09:50:12;96663.75;;;11.24;100.00
24306;BME280;12423;48.768;8.850;2023-02-23T09:52:21;96668.13;;;11.25;100.00
24306;BME280;12423;48.768;8.850;2023-02-23T09:54:26;96672.00;;;11.41;100.00
24306;BME280;12423;48.768;8.850;2023-02-23T09:56:45;96667.91;;;11.47;100.00
24306;BME280;12423;48.768;8.850;2023-02-23T09:58:47;96671.69;;;11.44;100.00
24306;BME280;12423;48.768;8.850;2023-02-23T10:01:08;96677.66;;;11.66;100.00
24306;BME280;12423;48.768;8.850;2023-02-23T10:03:19;96671.63;;;11.64;100.00
24306;BME280;12423;48.768;8.850;2023-02-23T10:05:22;96680.16;;;11.77;100.00
24306;BME280;12423;48.768;8.850;2023-02-23T10:10:12;96682.13;;;12.03;100.00
24306;BME280;12423;48.768;8.850;2023-02-23T10:12:24;96685.34;;;12.16;100.00
24306;BME280;12423;48.768;8.850;2023-02-23T10:14:32;96680.59;;;12.28;100.00
24306;BME280;12423;48.768;8.850;2023-02-23T10:16:52;96690.28;;;12.29;100.00
24306;BME280;12423;48.768;8.850;2023-02-23T10:21:33;96673.53;;;12.27;100.00
24306;BME280;12423;48.768;8.850;2023-02-23T10:23:41;96674.72;;;12.24;100.00
24306;BME280;12423;48.768;8.850;2023-02-23T10:25:46;96669.66;;;12.39;100.00
24306;BME280;12423;48.768;8.850;2023-02-23T10:27:49;96675.25;;;12.46;100.00
24306;BME280;12423;48.768;8.850;2023-02-23T10:29:55;96668.66;;;12.58;100.00
24306;BME280;12423;48.768;8.850;2023-02-23T10:32:04;96676.41;;;12.61;100.00
24306;BME280;12423;48.768;8.850;2023-02-23T10:34:12;96672.09;;;12.68;100.00
24306;BME280;12423;48.768;8.850;2023-02-23T10:36:19;96675.72;;;12.59;100.00
24306;BME280;12423;48.768;8.850;2023-02-23T10:38:25;96677.81;;;12.73;100.00
24306;BME280;12423;48.768;8.850;2023-02-23T10:40:29;96680.91;;;12.79;100.00
24306;BME280;12423;48.768;8.850;2023-02-23T10:42:32;96675.41;;;12.62;100.00
24306;BME280;12423;48.768;8.850;2023-02-23T10:44:33;96678.84;;;12.54;100.00
24306;BME280;12423;48.768;8.850;2023-02-23T10:46:39;96681.50;;;12.37;100.00
24306;BME280;12423;48.768;8.850;2023-02-23T10:48:40;96671.09;;;12.33;100.00
24306;BME280;12423;48.768;8.850;2023-02-23T10:50:47;96677.84;;;12.38;100.00
24306;BME280;12423;48.768;8.850;2023-02-23T10:52:52;96674.69;;;12.42;100.00
24306;BME280;12423;48.768;8.850;2023-02-23T10:54:54;96678.69;;;12.38;100.00
24306;BME280;12423;48.768;8.850;2023-02-23T10:56:55;96678.25;;;11.87;100.00
24306;BME280;12423;48.768;8.850;2023-02-23T10:58:57;96680.56;;;11.82;100.00
24306;BME280;12423;48.768;8.850;2023-02-23T11:01:01;96671.44;;;12.03;100.00
24306;BME280;12423;48.768;8.850;2023-02-23T11:03:16;96675.69;;;12.23;100.00
24306;BME280;12423;48.768;8.850;2023-02-23T11:07:30;96670.81;;;12.37;100.00
24306;BME280;12423;48.768;8.850;2023-02-23T11:09:32;96664.78;;;12.52;100.00
24306;BME280;12423;48.768;8.850;2023-02-23T11:11:33;96665.59;;;12.53;100.00
24306;BME280;12423;48.768;8.850;2023-02-23T11:13:40;96666.78;;;12.77;100.00
24306;BME280;12423;48.768;8.850;2023-02-23T11:15:42;96663.44;;;12.75;100.00
24306;BME280;12423;48.768;8.850;2023-02-23T11:17:43;96663.34;;;12.84;100.00
24306;BME280;12423;48.768;8.850;2023-02-23T11:19:44;96661.50;;;12.85;100.00
24306;BME280;12423;48.768;8.850;2023-02-23T11:21:50;96653.28;;;13.04;100.00
24306;BME280;12423;48.768;8.850;2023-02-23T11:23:54;96654.78;;;13.25;100.00
24306;BME280;12423;48.768;8.850;2023-02-23T11:26:03;96647.53;;;13.43;100.00
24306;BME280;12423;48.768;8.850;2023-02-23T11:28:09;96642.41;;;13.58;100.00
24306;BME280;12423;48.768;8.850;2023-02-23T11:30:19;96651.63;;;13.64;100.00
24306;BME280;12423;48.768;8.850;2023-02-23T11:32:27;96641.34;;;13.51;100.00
24306;BME280;12423;48.768;8.850;2023-02-23T11:34:32;96639.91;;;13.65;100.00
24306;BME280;12423;48.768;8.850;2023-02-23T11:36:36;96648.16;;;13.72;100.00
24306;BME280;12423;48.768;8.850;2023-02-23T11:38:37;96634.41;;;13.75;100.00